Terminal Aerodrome Forecast
Issued by NWS

Home | Current Version | Previous Version | Text Only | Print | Product List | Glossary On
Versions: 1 2 3 4 5 6 7 8 9 10 11 12 13 14 15 16 17 18 19 20 21
000
FTUS46 KPDT 241141
TAFALW
TAF
KALW 241141Z 2412/2512 19007KT P6SM SCT100 SCT120
     FM241500 21008KT P6SM SCT100 SCT120
     FM242100 24009KT P6SM SCT070 SCT120
     FM250200 21008KT P6SM FEW080 SCT120
     FM250600 18007KT P6SM SCT200=

USA.gov is the U.S. government's official web portal to all federal, state and local government web resources and services.